Time;durP1;ratioP1;P1;durP2;ratioP2;P2;SDS_P1;SDS_P2;PMS_P1;PMS_P2;Temp;Humidity;BMP_temperature;BMP_pressure;BME280_temperature;BME280_humidity;BME280_pressure;Samples;Min_cycle;Max_cycle;Signal;HPM_P1;HPM_P2
2021/09/05 00:00:54;;;;;;;37.13;18.15;;;;;;;;;;4916247;29;20027;-73
2021/09/05 00:03:19;;;;;;;32.83;18.30;;;;;;;;;;4933551;29;20484;-72
2021/09/05 00:05:45;;;;;;;39.72;19.50;;;;;;;;;;4933430;29;20055;-73
2021/09/05 00:08:10;;;;;;;36.25;20.40;;;;;;;;;;4933254;29;20079;-73
2021/09/05 00:10:36;;;;;;;45.05;20.92;;;;;;;;;;4916431;29;20544;-71
2021/09/05 00:13:02;;;;;;;40.30;22.17;;;;;;;;;;4916085;29;20282;-73
2021/09/05 00:15:27;;;;;;;41.47;20.92;;;;;;;;;;4931912;29;20502;-72
2021/09/05 00:17:53;;;;;;;40.92;20.75;;;;;;;;;;4933116;29;20052;-72
2021/09/05 00:20:18;;;;;;;37.13;20.27;;;;;;;;;;4931906;29;20548;-72
2021/09/05 00:22:46;;;;;;;44.90;20.02;;;;;;;;;;4933266;29;20107;-73
2021/09/05 00:25:12;;;;;;;35.13;19.13;;;;;;;;;;4915780;29;20030;-71
2021/09/05 00:27:37;;;;;;;41.15;19.20;;;;;;;;;;4936498;29;20126;-72
2021/09/05 00:30:04;;;;;;;40.42;18.80;;;;;;;;;;4957100;28;20364;-73
2021/09/05 00:32:29;;;;;;;36.25;17.95;;;;;;;;;;4970233;28;20030;-72
2021/09/05 00:34:55;;;;;;;38.92;18.67;;;;;;;;;;4970200;28;20030;-72
2021/09/05 00:37:20;;;;;;;31.92;17.38;;;;;;;;;;4971737;28;20030;-73
2021/09/05 00:39:46;;;;;;;39.13;18.83;;;;;;;;;;4954628;28;20030;-72
2021/09/05 00:42:11;;;;;;;37.03;18.05;;;;;;;;;;4954442;28;20061;-73
2021/09/05 00:44:37;;;;;;;40.95;19.05;;;;;;;;;;4971641;28;20050;-73
2021/09/05 00:47:02;;;;;;;39.40;18.10;;;;;;;;;;4971924;28;20500;-71
2021/09/05 00:49:28;;;;;;;36.55;17.50;;;;;;;;;;4971731;28;20039;-73
2021/09/05 00:51:54;;;;;;;34.40;18.52;;;;;;;;;;4954045;28;20391;-72
2021/09/05 00:54:20;;;;;;;35.10;17.35;;;;;;;;;;4953728;28;20114;-72
2021/09/05 00:56:46;;;;;;;35.20;18.15;;;;;;;;;;4954162;28;20105;-71
2021/09/05 00:59:17;;;;;;;34.72;18.23;;;;;;;;;;4953786;28;20549;-72
2021/09/05 01:01:42;;;;;;;40.33;18.52;;;;;;;;;;4971358;28;20026;-72
2021/09/05 01:04:08;;;;;;;37.75;17.92;;;;;;;;;;4971066;28;20033;-71
2021/09/05 01:06:35;;;;;;;38.60;18.40;;;;;;;;;;4971246;28;20388;-73
2021/09/05 01:09:02;;;;;;;35.15;18.55;;;;;;;;;;4953705;28;20037;-72
2021/09/05 01:11:32;;;;;;;43.45;19.63;;;;;;;;;;4971205;28;20042;-73
2021/09/05 01:13:57;;;;;;;39.42;18.10;;;;;;;;;;4953606;28;20517;-72
2021/09/05 01:16:32;;;;;;;39.97;18.70;;;;;;;;;;4971937;28;20031;-73
2021/09/05 01:19:10;;;;;;;36.00;17.98;;;;;;;;;;4970778;28;20027;-73
2021/09/05 01:21:36;;;;;;;38.22;19.52;;;;;;;;;;4970775;28;20026;-72
2021/09/05 01:24:03;;;;;;;36.45;18.15;;;;;;;;;;4972212;28;20435;-72
2021/09/05 01:26:30;;;;;;;39.10;19.63;;;;;;;;;;4956972;28;20034;-73
2021/09/05 01:28:56;;;;;;;36.20;18.20;;;;;;;;;;4956808;28;20047;-73
2021/09/05 01:31:24;;;;;;;39.17;19.80;;;;;;;;;;4974530;28;20732;-73
2021/09/05 01:33:49;;;;;;;36.83;18.42;;;;;;;;;;4957484;28;20050;-74
2021/09/05 01:36:18;;;;;;;40.30;18.55;;;;;;;;;;4974645;28;20546;-74
2021/09/05 01:38:44;;;;;;;44.65;20.25;;;;;;;;;;4974746;28;20023;-73
2021/09/05 01:41:10;;;;;;;39.38;18.88;;;;;;;;;;4974341;28;20042;-73
2021/09/05 01:43:37;;;;;;;42.88;21.33;;;;;;;;;;4974775;28;20114;-74
2021/09/05 01:46:03;;;;;;;37.92;19.08;;;;;;;;;;4956907;28;20695;-74
2021/09/05 01:48:28;;;;;;;39.75;18.25;;;;;;;;;;4956755;28;20037;-73
2021/09/05 01:50:54;;;;;;;37.03;19.73;;;;;;;;;;4974232;28;20499;-73
2021/09/05 01:53:19;;;;;;;39.20;19.50;;;;;;;;;;4974295;28;20038;-73
2021/09/05 01:55:45;;;;;;;47.47;19.63;;;;;;;;;;4974118;28;20023;-72
2021/09/05 01:58:10;;;;;;;38.08;20.10;;;;;;;;;;4974006;28;20023;-73
2021/09/05 02:00:36;;;;;;;40.28;21.15;;;;;;;;;;4974468;28;20497;-74
2021/09/05 02:03:02;;;;;;;41.08;20.08;;;;;;;;;;4974102;28;20023;-74
2021/09/05 02:05:27;;;;;;;41.45;20.98;;;;;;;;;;4974421;28;20031;-74
2021/09/05 02:07:53;;;;;;;38.28;19.50;;;;;;;;;;4973990;28;20395;-71
2021/09/05 02:10:19;;;;;;;35.83;19.65;;;;;;;;;;4974171;28;20062;-73
2021/09/05 02:12:44;;;;;;;40.03;21.08;;;;;;;;;;4977562;28;20497;-74
2021/09/05 02:15:10;;;;;;;37.30;20.38;;;;;;;;;;4977141;28;20022;-73
2021/09/05 02:17:35;;;;;;;34.50;20.33;;;;;;;;;;4975707;28;20073;-72
2021/09/05 02:20:01;;;;;;;38.58;19.90;;;;;;;;;;4972242;28;20027;-73
2021/09/05 02:22:26;;;;;;;44.42;23.20;;;;;;;;;;4973988;28;20037;-73
2021/09/05 02:24:52;;;;;;;39.53;21.10;;;;;;;;;;4956553;28;20030;-72
2021/09/05 02:27:17;;;;;;;43.95;21.65;;;;;;;;;;4973340;28;20031;-73
2021/09/05 02:29:43;;;;;;;44.38;21.42;;;;;;;;;;4955178;28;20038;-72
2021/09/05 02:32:08;;;;;;;38.78;20.35;;;;;;;;;;4972578;28;20039;-73
2021/09/05 02:34:34;;;;;;;41.10;21.75;;;;;;;;;;4971948;28;20041;-74
2021/09/05 02:36:59;;;;;;;42.13;20.77;;;;;;;;;;4955555;28;20050;-74
2021/09/05 02:39:25;;;;;;;36.97;20.55;;;;;;;;;;4973606;28;20106;-74
2021/09/05 02:41:51;;;;;;;39.08;20.60;;;;;;;;;;4973047;28;20034;-74
2021/09/05 02:44:16;;;;;;;38.20;21.00;;;;;;;;;;4972982;28;20089;-73
2021/09/05 02:46:42;;;;;;;39.88;21.75;;;;;;;;;;4972285;28;20106;-73
2021/09/05 02:49:07;;;;;;;42.80;21.52;;;;;;;;;;4971926;28;20066;-73
2021/09/05 02:51:33;;;;;;;37.90;21.05;;;;;;;;;;4954516;28;20471;-73
2021/09/05 02:53:58;;;;;;;39.00;21.00;;;;;;;;;;4976401;28;20031;-73
2021/09/05 02:56:24;;;;;;;41.42;22.38;;;;;;;;;;4963960;28;20446;-73
2021/09/05 02:58:49;;;;;;;36.03;21.08;;;;;;;;;;4992645;28;20037;-73
2021/09/05 03:01:15;;;;;;;43.75;21.05;;;;;;;;;;4991017;28;20018;-72
2021/09/05 03:03:40;;;;;;;39.28;20.48;;;;;;;;;;4991327;28;20030;-73
2021/09/05 03:06:06;;;;;;;36.17;20.33;;;;;;;;;;4991224;28;20076;-72
2021/09/05 03:08:31;;;;;;;41.97;22.30;;;;;;;;;;4973904;28;20406;-74
2021/09/05 03:10:57;;;;;;;39.35;20.23;;;;;;;;;;4991457;28;20112;-72
2021/09/05 03:13:23;;;;;;;38.97;23.67;;;;;;;;;;4973829;28;20061;-72
2021/09/05 03:15:48;;;;;;;51.33;23.50;;;;;;;;;;4991289;28;20026;-73
2021/09/05 03:18:14;;;;;;;43.88;21.85;;;;;;;;;;4992528;28;20435;-74
2021/09/05 03:20:40;;;;;;;37.75;20.48;;;;;;;;;;4992426;28;20034;-74
2021/09/05 03:23:06;;;;;;;37.10;21.50;;;;;;;;;;4992217;28;20045;-74
2021/09/05 03:25:31;;;;;;;40.10;22.30;;;;;;;;;;4992352;28;20806;-73
2021/09/05 03:27:57;;;;;;;42.47;21.88;;;;;;;;;;4931321;28;1237282;-73
2021/09/05 03:30:22;;;;;;;42.65;21.25;;;;;;;;;;4983698;28;20100;-73
2021/09/05 03:32:48;;;;;;;38.85;21.92;;;;;;;;;;4972436;28;20034;-73
2021/09/05 03:35:13;;;;;;;36.22;20.65;;;;;;;;;;4972374;28;20030;-73
2021/09/05 03:37:38;;;;;;;39.45;21.30;;;;;;;;;;4972461;28;20516;-73
2021/09/05 03:40:04;;;;;;;39.28;21.50;;;;;;;;;;4972241;28;20087;-73
2021/09/05 03:42:30;;;;;;;45.45;22.27;;;;;;;;;;4972298;28;20110;-74
2021/09/05 03:44:55;;;;;;;39.25;21.77;;;;;;;;;;4954811;28;20391;-73
2021/09/05 03:47:23;;;;;;;40.42;22.55;;;;;;;;;;4970858;28;20030;-74
2021/09/05 03:49:50;;;;;;;38.45;21.15;;;;;;;;;;4972136;28;20027;-74
2021/09/05 03:52:16;;;;;;;41.67;23.35;;;;;;;;;;4971908;28;20034;-73
2021/09/05 03:54:42;;;;;;;43.55;23.10;;;;;;;;;;4972042;28;20518;-74
2021/09/05 03:57:07;;;;;;;41.65;23.60;;;;;;;;;;4970335;28;20026;-73
2021/09/05 03:59:33;;;;;;;40.78;21.95;;;;;;;;;;4954542;28;20396;-73
2021/09/05 04:01:58;;;;;;;37.88;21.65;;;;;;;;;;4972091;28;20364;-73
2021/09/05 04:04:24;;;;;;;42.72;24.00;;;;;;;;;;4971603;28;20027;-73
2021/09/05 04:06:59;;;;;;;45.95;21.65;;;;;;;;;;4971807;28;20118;-73
2021/09/05 04:12:09;;;;;;;45.65;21.02;;;;;;;;;;4971891;28;20058;-72
2021/09/05 04:14:35;;;;;;;39.30;21.63;;;;;;;;;;4971940;28;20106;-74
2021/09/05 04:17:00;;;;;;;36.75;21.13;;;;;;;;;;4971373;28;20031;-73
2021/09/05 04:19:26;;;;;;;39.08;21.95;;;;;;;;;;4954154;28;20035;-73
2021/09/05 04:21:51;;;;;;;39.03;21.70;;;;;;;;;;4938346;28;20461;-74
2021/09/05 04:24:17;;;;;;;43.03;23.33;;;;;;;;;;4971310;28;20031;-74
2021/09/05 04:26:42;;;;;;;44.80;21.90;;;;;;;;;;4970096;28;20062;-74
2021/09/05 04:29:08;;;;;;;49.67;23.63;;;;;;;;;;4971225;28;20062;-73
2021/09/05 04:31:33;;;;;;;43.30;21.83;;;;;;;;;;4971535;28;20042;-73
2021/09/05 04:33:59;;;;;;;42.30;23.13;;;;;;;;;;4971391;28;20038;-73
2021/09/05 04:36:24;;;;;;;45.93;21.53;;;;;;;;;;4953695;28;20395;-74
2021/09/05 04:38:50;;;;;;;44.10;21.98;;;;;;;;;;4953842;28;20041;-74
2021/09/05 04:41:15;;;;;;;41.00;22.48;;;;;;;;;;4953591;28;20031;-72
2021/09/05 04:43:40;;;;;;;42.10;21.37;;;;;;;;;;4971409;28;20106;-73
2021/09/05 04:46:06;;;;;;;38.37;21.77;;;;;;;;;;4970863;28;20054;-73
2021/09/05 04:48:31;;;;;;;39.88;20.98;;;;;;;;;;4971012;28;20034;-74
2021/09/05 04:50:57;;;;;;;50.43;22.37;;;;;;;;;;4971124;28;20061;-74
2021/09/05 04:53:22;;;;;;;41.13;23.20;;;;;;;;;;4970885;28;20045;-74
2021/09/05 04:55:48;;;;;;;43.50;22.63;;;;;;;;;;4971226;28;20027;-75
2021/09/05 04:58:13;;;;;;;40.88;21.70;;;;;;;;;;4970490;28;20058;-74
2021/09/05 05:00:39;;;;;;;40.00;20.63;;;;;;;;;;4971033;28;20057;-74
2021/09/05 05:03:04;;;;;;;46.30;22.57;;;;;;;;;;4970904;28;20031;-73
2021/09/05 05:05:29;;;;;;;35.67;21.37;;;;;;;;;;4971392;28;20085;-73
2021/09/05 05:07:55;;;;;;;39.05;21.85;;;;;;;;;;4971332;28;20061;-74
2021/09/05 05:10:22;;;;;;;40.60;22.70;;;;;;;;;;4971497;28;20031;-74
2021/09/05 05:12:47;;;;;;;41.37;23.10;;;;;;;;;;4971014;28;20034;-73
2021/09/05 05:15:13;;;;;;;41.17;22.63;;;;;;;;;;4953115;28;20043;-73
2021/09/05 05:17:38;;;;;;;43.58;22.65;;;;;;;;;;4970610;28;20435;-73
2021/09/05 05:20:05;;;;;;;36.83;21.10;;;;;;;;;;4968968;28;20073;-72
2021/09/05 05:22:30;;;;;;;42.23;22.20;;;;;;;;;;4971064;28;20054;-74
2021/09/05 05:24:56;;;;;;;43.85;21.60;;;;;;;;;;4971392;28;20059;-73
2021/09/05 05:27:21;;;;;;;47.13;22.27;;;;;;;;;;4971020;28;20047;-74
2021/09/05 05:29:47;;;;;;;38.42;22.45;;;;;;;;;;4971436;28;20026;-73
2021/09/05 05:32:12;;;;;;;39.57;22.30;;;;;;;;;;4953329;28;20026;-73
2021/09/05 05:34:37;;;;;;;43.47;21.53;;;;;;;;;;4953236;28;20462;-73
2021/09/05 05:37:03;;;;;;;35.60;22.10;;;;;;;;;;4970489;28;20026;-75
2021/09/05 05:39:29;;;;;;;44.22;23.35;;;;;;;;;;4970422;28;20034;-73
2021/09/05 05:41:55;;;;;;;45.67;23.13;;;;;;;;;;4953218;28;20039;-74
2021/09/05 05:44:21;;;;;;;41.95;22.25;;;;;;;;;;4970435;28;20042;-73
2021/09/05 05:46:46;;;;;;;37.30;21.23;;;;;;;;;;4970473;28;20086;-74
2021/09/05 05:49:12;;;;;;;36.05;20.23;;;;;;;;;;4953154;28;20104;-73
2021/09/05 05:51:37;;;;;;;43.77;22.93;;;;;;;;;;4953123;28;20114;-72
2021/09/05 05:54:02;;;;;;;48.35;24.58;;;;;;;;;;4957033;28;20035;-73
2021/09/05 05:56:28;;;;;;;40.63;22.37;;;;;;;;;;4967764;28;20069;-74
2021/09/05 05:58:53;;;;;;;42.73;21.27;;;;;;;;;;4990003;28;20026;-73
2021/09/05 06:01:20;;;;;;;38.40;21.97;;;;;;;;;;4988390;28;20026;-74
2021/09/05 06:03:45;;;;;;;43.03;22.50;;;;;;;;;;4990028;28;20044;-73
2021/09/05 06:06:11;;;;;;;39.80;21.08;;;;;;;;;;4989912;28;20027;-74
2021/09/05 06:08:37;;;;;;;43.60;21.98;;;;;;;;;;4972229;28;20038;-74
2021/09/05 06:11:02;;;;;;;44.03;21.27;;;;;;;;;;4975171;28;20479;-75
2021/09/05 06:13:28;;;;;;;38.22;21.63;;;;;;;;;;4993134;28;20026;-73
2021/09/05 06:15:54;;;;;;;43.55;22.52;;;;;;;;;;4975762;28;20433;-74
2021/09/05 06:18:19;;;;;;;47.00;24.10;;;;;;;;;;4992993;28;20069;-72
2021/09/05 06:20:46;;;;;;;46.50;24.00;;;;;;;;;;4975657;28;20030;-74
2021/09/05 06:23:12;;;;;;;41.63;22.50;;;;;;;;;;4993048;28;20487;-73
2021/09/05 06:25:37;;;;;;;46.70;23.35;;;;;;;;;;4993188;28;20117;-72
2021/09/05 06:28:03;;;;;;;42.97;22.27;;;;;;;;;;4993082;28;20090;-72
2021/09/05 06:30:28;;;;;;;44.33;22.27;;;;;;;;;;4966273;28;20111;-72
2021/09/05 06:32:54;;;;;;;47.28;22.73;;;;;;;;;;4973649;28;20390;-74
2021/09/05 06:35:19;;;;;;;38.38;23.17;;;;;;;;;;4973211;28;20104;-74
2021/09/05 06:37:45;;;;;;;46.25;24.52;;;;;;;;;;4973703;28;20305;-73
2021/09/05 06:40:11;;;;;;;36.38;22.13;;;;;;;;;;4956269;28;20031;-75
2021/09/05 06:42:36;;;;;;;43.55;23.80;;;;;;;;;;4973549;28;20027;-74
2021/09/05 06:45:02;;;;;;;44.55;22.88;;;;;;;;;;4973430;28;20041;-73
2021/09/05 06:47:27;;;;;;;44.90;23.15;;;;;;;;;;4973426;28;20031;-75
2021/09/05 06:49:53;;;;;;;84.60;25.73;;;;;;;;;;4973224;28;20035;-77
2021/09/05 06:52:18;;;;;;;50.00;20.83;;;;;;;;;;4955192;28;20035;-74
2021/09/05 06:54:44;;;;;;;38.30;20.95;;;;;;;;;;4972941;28;20030;-75
2021/09/05 06:57:09;;;;;;;37.90;21.80;;;;;;;;;;4973002;28;20019;-74
2021/09/05 06:59:35;;;;;;;37.25;21.92;;;;;;;;;;4955678;28;20031;-74
2021/09/05 07:02:01;;;;;;;47.08;23.50;;;;;;;;;;4973065;28;20413;-73
2021/09/05 07:04:26;;;;;;;46.08;23.02;;;;;;;;;;4972902;28;20058;-73
2021/09/05 07:06:51;;;;;;;36.50;22.92;;;;;;;;;;4974169;28;20062;-73
2021/09/05 07:09:17;;;;;;;41.15;23.27;;;;;;;;;;4957098;28;20037;-74
2021/09/05 07:11:44;;;;;;;42.85;22.23;;;;;;;;;;4973977;28;20557;-73
2021/09/05 07:14:09;;;;;;;42.83;23.20;;;;;;;;;;4955821;28;20034;-74
2021/09/05 07:16:35;;;;;;;44.35;23.45;;;;;;;;;;4956001;28;20490;-74
2021/09/05 07:19:00;;;;;;;37.65;22.33;;;;;;;;;;4955671;28;20037;-73
2021/09/05 07:21:26;;;;;;;41.58;22.50;;;;;;;;;;4953936;28;20367;-74
2021/09/05 07:23:51;;;;;;;39.30;21.70;;;;;;;;;;4972437;28;20070;-74
2021/09/05 07:26:17;;;;;;;43.35;23.52;;;;;;;;;;4972312;28;20035;-74
2021/09/05 07:28:42;;;;;;;43.95;23.08;;;;;;;;;;4972470;28;20121;-73
2021/09/05 07:31:08;;;;;;;43.17;22.38;;;;;;;;;;4955086;28;20035;-76
2021/09/05 07:33:33;;;;;;;40.58;23.95;;;;;;;;;;4954574;28;20075;-74
2021/09/05 07:35:59;;;;;;;38.47;22.98;;;;;;;;;;4972384;28;20054;-71
2021/09/05 07:38:24;;;;;;;41.83;23.80;;;;;;;;;;4972169;28;20049;-74
2021/09/05 07:40:50;;;;;;;42.30;22.50;;;;;;;;;;4972166;28;20043;-74
2021/09/05 07:43:16;;;;;;;49.47;20.90;;;;;;;;;;4954642;28;20396;-74
2021/09/05 07:45:41;;;;;;;43.42;23.38;;;;;;;;;;4972165;28;20047;-74
2021/09/05 07:48:07;;;;;;;43.88;22.20;;;;;;;;;;4970969;28;20035;-74
2021/09/05 07:50:33;;;;;;;39.00;21.30;;;;;;;;;;4972187;28;20038;-75
2021/09/05 07:52:59;;;;;;;37.40;20.40;;;;;;;;;;4973561;28;20451;-74
2021/09/05 07:55:26;;;;;;;44.05;21.80;;;;;;;;;;4955368;28;20053;-76
2021/09/05 07:57:52;;;;;;;41.95;21.92;;;;;;;;;;4972694;28;20399;-75
2021/09/05 08:00:19;;;;;;;39.45;21.83;;;;;;;;;;4954420;28;20023;-74
2021/09/05 08:02:44;;;;;;;33.70;20.55;;;;;;;;;;4954525;28;20042;-75
2021/09/05 08:05:11;;;;;;;41.95;22.60;;;;;;;;;;4971825;28;20038;-75
2021/09/05 08:07:36;;;;;;;38.15;21.95;;;;;;;;;;4954026;28;20105;-74
2021/09/05 08:10:03;;;;;;;38.40;21.73;;;;;;;;;;4971538;28;20034;-75
2021/09/05 08:12:29;;;;;;;42.38;23.00;;;;;;;;;;4954227;28;20080;-73
2021/09/05 08:14:56;;;;;;;38.83;22.65;;;;;;;;;;4971561;28;20479;-75
2021/09/05 08:17:21;;;;;;;38.03;21.45;;;;;;;;;;4971387;28;20034;-75
2021/09/05 08:19:50;;;;;;;39.50;21.63;;;;;;;;;;4954354;28;20034;-75
2021/09/05 08:22:15;;;;;;;43.78;23.25;;;;;;;;;;4971115;28;20034;-73
2021/09/05 08:24:41;;;;;;;40.28;22.45;;;;;;;;;;4971139;28;20040;-73
2021/09/05 08:27:06;;;;;;;39.50;22.58;;;;;;;;;;4971198;28;20467;-73
2021/09/05 08:29:32;;;;;;;43.80;22.15;;;;;;;;;;4953449;28;20093;-75
2021/09/05 08:31:58;;;;;;;40.33;22.20;;;;;;;;;;4953669;28;20199;-75
2021/09/05 08:34:23;;;;;;;40.97;22.20;;;;;;;;;;4953578;28;20034;-75
2021/09/05 08:36:49;;;;;;;41.10;22.05;;;;;;;;;;4971322;28;20042;-74
2021/09/05 08:39:14;;;;;;;42.78;21.85;;;;;;;;;;4971167;28;20039;-73
2021/09/05 08:41:40;;;;;;;44.08;22.60;;;;;;;;;;4970152;28;20045;-76
2021/09/05 08:44:05;;;;;;;39.33;20.80;;;;;;;;;;4970172;28;20027;-75
2021/09/05 08:46:31;;;;;;;41.63;20.92;;;;;;;;;;4971532;28;20026;-73
2021/09/05 08:48:57;;;;;;;39.70;22.13;;;;;;;;;;4954137;28;20124;-75
2021/09/05 08:51:22;;;;;;;35.88;20.17;;;;;;;;;;4937708;28;20125;-74
2021/09/05 08:53:48;;;;;;;42.83;21.17;;;;;;;;;;4953809;28;20034;-75
2021/09/05 08:56:14;;;;;;;36.45;21.48;;;;;;;;;;4974987;28;20481;-73
2021/09/05 08:58:40;;;;;;;44.80;24.33;;;;;;;;;;4963306;28;20081;-75
2021/09/05 09:01:17;;;;;;;39.00;20.70;;;;;;;;;;4953636;28;20038;-74
2021/09/05 09:03:43;;;;;;;42.70;22.60;;;;;;;;;;4953580;28;20045;-74
2021/09/05 09:06:08;;;;;;;44.83;20.88;;;;;;;;;;4953495;28;20039;-74
2021/09/05 09:08:34;;;;;;;36.20;19.60;;;;;;;;;;4953027;28;20076;-74
2021/09/05 09:11:04;;;;;;;36.97;20.05;;;;;;;;;;4970921;28;20030;-74
2021/09/05 09:13:40;;;;;;;37.25;21.48;;;;;;;;;;4937496;28;20466;-74
2021/09/05 09:16:10;;;;;;;37.60;20.42;;;;;;;;;;4953061;28;20030;-74
2021/09/05 09:18:37;;;;;;;36.80;20.80;;;;;;;;;;4952923;28;20068;-73
2021/09/05 09:21:11;;;;;;;39.00;19.63;;;;;;;;;;4970495;28;20030;-74
2021/09/05 09:23:38;;;;;;;37.58;19.95;;;;;;;;;;4949748;28;20085;-74
2021/09/05 09:26:07;;;;;;;40.60;20.20;;;;;;;;;;4970480;28;20019;-74
2021/09/05 09:28:40;;;;;;;36.80;20.40;;;;;;;;;;4954444;28;20109;-74
2021/09/05 09:31:05;;;;;;;36.15;20.25;;;;;;;;;;4970775;28;20030;-74
2021/09/05 09:33:31;;;;;;;36.08;19.60;;;;;;;;;;4953070;28;20029;-74
2021/09/05 09:36:00;;;;;;;31.25;19.50;;;;;;;;;;4953189;28;20043;-74
2021/09/05 09:38:25;;;;;;;36.75;19.65;;;;;;;;;;4969941;28;20026;-73
2021/09/05 09:41:13;;;;;;;35.78;19.77;;;;;;;;;;4953270;28;20114;-73
2021/09/05 09:43:51;;;;;;;29.08;17.73;;;;;;;;;;4970331;28;20031;-76
2021/09/05 09:46:19;;;;;;;37.42;19.15;;;;;;;;;;4973999;28;20405;-75
2021/09/05 09:48:50;;;;;;;32.25;19.33;;;;;;;;;;4956964;28;20047;-75
2021/09/05 09:51:17;;;;;;;30.83;17.55;;;;;;;;;;4974208;28;20026;-76
2021/09/05 09:53:43;;;;;;;32.85;18.30;;;;;;;;;;4956542;28;20056;-74
2021/09/05 09:56:17;;;;;;;32.35;18.38;;;;;;;;;;4957298;28;20120;-74
2021/09/05 09:58:51;;;;;;;33.95;18.08;;;;;;;;;;4957054;28;20065;-73
2021/09/05 10:01:22;;;;;;;36.70;20.20;;;;;;;;;;4974011;28;20026;-75
2021/09/05 10:03:49;;;;;;;39.20;17.88;;;;;;;;;;4973893;28;20585;-74
2021/09/05 10:06:15;;;;;;;29.35;17.27;;;;;;;;;;4956082;28;20039;-75
2021/09/05 10:08:42;;;;;;;34.30;19.20;;;;;;;;;;4973740;28;20157;-74
2021/09/05 10:11:11;;;;;;;28.33;17.15;;;;;;;;;;4974001;28;20102;-72
2021/09/05 10:13:38;;;;;;;31.27;17.52;;;;;;;;;;4956049;28;20325;-74
2021/09/05 10:16:05;;;;;;;30.48;17.02;;;;;;;;;;4973893;28;20026;-74
2021/09/05 10:18:33;;;;;;;33.85;17.60;;;;;;;;;;4973664;28;20022;-74
2021/09/05 10:21:00;;;;;;;29.83;17.15;;;;;;;;;;4956450;28;20026;-74
2021/09/05 10:23:29;;;;;;;36.35;17.88;;;;;;;;;;4973651;28;20035;-74
2021/09/05 10:26:02;;;;;;;31.02;16.63;;;;;;;;;;4956020;28;20027;-73
2021/09/05 10:28:34;;;;;;;27.90;15.93;;;;;;;;;;4973240;28;20556;-75
2021/09/05 10:31:00;;;;;;;29.55;17.02;;;;;;;;;;4956113;28;20037;-73
2021/09/05 10:33:34;;;;;;;35.45;17.63;;;;;;;;;;4955582;28;20030;-73
2021/09/05 10:36:14;;;;;;;29.30;17.65;;;;;;;;;;4956153;28;20545;-75
2021/09/05 10:38:42;;;;;;;28.77;17.70;;;;;;;;;;4955447;28;20031;-74
2021/09/05 10:41:22;;;;;;;26.52;16.75;;;;;;;;;;4971692;28;20027;-74
2021/09/05 10:43:48;;;;;;;26.90;16.35;;;;;;;;;;4955553;28;20023;-74
2021/09/05 10:46:24;;;;;;;35.17;18.17;;;;;;;;;;4955578;28;20454;-73
2021/09/05 10:48:53;;;;;;;27.88;16.02;;;;;;;;;;4956421;28;20035;-75
2021/09/05 10:51:33;;;;;;;29.40;17.10;;;;;;;;;;4972770;28;20475;-73
2021/09/05 10:54:08;;;;;;;31.38;17.70;;;;;;;;;;4955712;28;20078;-74
2021/09/05 10:56:36;;;;;;;27.23;16.10;;;;;;;;;;4955230;28;20504;-75
2021/09/05 10:59:25;;;;;;;24.17;15.38;;;;;;;;;;4955378;28;20037;-74
2021/09/05 11:01:50;;;;;;;25.42;15.05;;;;;;;;;;4972662;28;20447;-74
2021/09/05 11:04:20;;;;;;;27.35;16.02;;;;;;;;;;4972710;28;20179;-74
2021/09/05 11:06:56;;;;;;;31.73;17.50;;;;;;;;;;4955411;28;20030;-73
2021/09/05 11:09:25;;;;;;;28.77;15.52;;;;;;;;;;4972568;28;20030;-72
2021/09/05 11:12:00;;;;;;;30.08;17.30;;;;;;;;;;4972690;28;20093;-75
2021/09/05 11:14:36;;;;;;;28.17;17.23;;;;;;;;;;4972153;28;20038;-74
2021/09/05 11:17:12;;;;;;;26.35;15.98;;;;;;;;;;4955387;28;20019;-76
2021/09/05 11:19:53;;;;;;;27.58;17.13;;;;;;;;;;4972497;28;20050;-74
2021/09/05 11:22:25;;;;;;;25.50;15.13;;;;;;;;;;4973202;28;20102;-75
2021/09/05 11:25:11;;;;;;;22.58;15.55;;;;;;;;;;4955458;28;20037;-74
2021/09/05 11:27:38;;;;;;;25.73;14.48;;;;;;;;;;4954588;28;20511;-76
2021/09/05 11:30:11;;;;;;;24.25;14.60;;;;;;;;;;4972421;28;20038;-76
2021/09/05 11:32:39;;;;;;;22.58;13.60;;;;;;;;;;4939115;28;20380;-75
2021/09/05 11:35:04;;;;;;;25.42;14.00;;;;;;;;;;4971521;28;20406;-75
2021/09/05 11:37:35;;;;;;;21.63;13.50;;;;;;;;;;4972927;28;20560;-75
2021/09/05 11:40:09;;;;;;;26.50;14.25;;;;;;;;;;4972740;28;20037;-74
2021/09/05 11:42:35;;;;;;;24.42;14.60;;;;;;;;;;4972000;28;20076;-75
2021/09/05 11:45:07;;;;;;;25.75;15.52;;;;;;;;;;4954375;28;20051;-76
2021/09/05 11:47:33;;;;;;;31.98;16.60;;;;;;;;;;4948058;29;20114;-75
2021/09/05 11:50:02;;;;;;;23.73;15.38;;;;;;;;;;4919567;29;20039;-75
2021/09/05 11:52:30;;;;;;;26.30;16.30;;;;;;;;;;4935607;29;20031;-75
2021/09/05 11:55:07;;;;;;;29.83;16.23;;;;;;;;;;4935108;29;20041;-75
2021/09/05 11:57:36;;;;;;;26.27;15.15;;;;;;;;;;4969528;28;20019;-76
2021/09/05 12:00:08;;;;;;;22.92;13.75;;;;;;;;;;4961608;28;20027;-75
2021/09/05 12:02:37;;;;;;;22.92;14.93;;;;;;;;;;4974920;28;20167;-76
2021/09/05 12:05:05;;;;;;;26.85;15.57;;;;;;;;;;4977006;28;20026;-75
2021/09/05 12:07:37;;;;;;;25.85;14.75;;;;;;;;;;4955032;28;20498;-73
2021/09/05 12:10:14;;;;;;;24.60;14.43;;;;;;;;;;4971392;28;20477;-77
2021/09/05 12:12:43;;;;;;;22.33;13.85;;;;;;;;;;4972081;28;20352;-75
2021/09/05 12:15:19;;;;;;;24.25;14.48;;;;;;;;;;4971573;28;20027;-75
2021/09/05 12:17:55;;;;;;;24.17;14.88;;;;;;;;;;4971434;28;20050;-74
2021/09/05 12:20:25;;;;;;;25.73;14.32;;;;;;;;;;4971450;28;20458;-74
2021/09/05 12:22:53;;;;;;;22.50;14.27;;;;;;;;;;4953980;28;20126;-76
2021/09/05 12:25:30;;;;;;;23.30;14.02;;;;;;;;;;4954204;28;20576;-75
2021/09/05 12:28:03;;;;;;;31.83;14.82;;;;;;;;;;4970909;28;20038;-74
2021/09/05 12:30:34;;;;;;;27.42;15.15;;;;;;;;;;4971168;28;20037;-74
2021/09/05 12:33:08;;;;;;;23.58;14.38;;;;;;;;;;4971284;28;20034;-75
2021/09/05 12:35:36;;;;;;;23.60;14.85;;;;;;;;;;4970937;28;20344;-75
2021/09/05 12:38:26;;;;;;;22.77;14.20;;;;;;;;;;4971237;28;20051;-75
2021/09/05 12:40:54;;;;;;;23.85;15.05;;;;;;;;;;4971540;28;20038;-76
2021/09/05 12:43:43;;;;;;;21.90;13.27;;;;;;;;;;4953737;28;20038;-74
2021/09/05 12:46:09;;;;;;;22.17;15.45;;;;;;;;;;4953628;28;20034;-75
2021/09/05 12:48:36;;;;;;;27.23;16.75;;;;;;;;;;4971103;28;20541;-75
2021/09/05 12:51:09;;;;;;;23.75;15.32;;;;;;;;;;4953948;28;20368;-77
2021/09/05 12:53:35;;;;;;;24.02;14.93;;;;;;;;;;4953598;28;20497;-75
2021/09/05 12:56:00;;;;;;;23.63;15.48;;;;;;;;;;4953806;28;20035;-75
2021/09/05 12:58:26;;;;;;;24.10;15.05;;;;;;;;;;4970986;28;20489;-75
2021/09/05 13:00:52;;;;;;;22.23;14.77;;;;;;;;;;4953237;28;20117;-75
2021/09/05 13:03:17;;;;;;;24.10;14.70;;;;;;;;;;4937257;28;20034;-74
2021/09/05 13:05:43;;;;;;;29.42;16.10;;;;;;;;;;4953238;28;20181;-76
2021/09/05 13:08:08;;;;;;;27.98;17.23;;;;;;;;;;4954007;28;20031;-74
2021/09/05 13:10:34;;;;;;;23.48;14.98;;;;;;;;;;4971404;28;20030;-74
2021/09/05 13:13:01;;;;;;;20.77;12.60;;;;;;;;;;4971509;28;20073;-75
2021/09/05 13:15:27;;;;;;;21.95;13.45;;;;;;;;;;4969370;28;20034;-76
2021/09/05 13:17:53;;;;;;;22.27;13.27;;;;;;;;;;4969043;28;20428;-76
2021/09/05 13:20:19;;;;;;;22.45;12.85;;;;;;;;;;4957324;28;20118;-75
2021/09/05 13:22:45;;;;;;;19.45;12.63;;;;;;;;;;4956841;28;20109;-74
2021/09/05 13:25:13;;;;;;;21.20;12.00;;;;;;;;;;4974986;28;20157;-77
2021/09/05 13:27:39;;;;;;;20.40;12.05;;;;;;;;;;4957045;28;20074;-75
2021/09/05 13:30:09;;;;;;;21.00;12.77;;;;;;;;;;4937801;29;20053;-74
2021/09/05 13:32:37;;;;;;;20.90;13.80;;;;;;;;;;4954876;29;20031;-74
2021/09/05 13:35:03;;;;;;;24.98;13.45;;;;;;;;;;4955025;29;20095;-75
2021/09/05 13:37:28;;;;;;;18.52;12.43;;;;;;;;;;4953935;29;20321;-75
2021/09/05 13:39:54;;;;;;;20.13;12.95;;;;;;;;;;4953870;29;20039;-74
2021/09/05 13:42:20;;;;;;;21.38;13.50;;;;;;;;;;4955292;29;20035;-75
2021/09/05 13:44:46;;;;;;;19.38;12.30;;;;;;;;;;4955438;29;20037;-76
2021/09/05 13:47:11;;;;;;;20.58;12.75;;;;;;;;;;4955237;29;20563;-76
2021/09/05 13:49:37;;;;;;;20.95;12.75;;;;;;;;;;4956330;29;20634;-74
2021/09/05 13:52:03;;;;;;;21.77;13.10;;;;;;;;;;4953720;29;20062;-74
2021/09/05 13:54:28;;;;;;;20.85;13.38;;;;;;;;;;4954813;29;20583;-75
2021/09/05 13:56:55;;;;;;;21.70;12.93;;;;;;;;;;4953290;29;20023;-76
2021/09/05 13:59:20;;;;;;;21.20;13.13;;;;;;;;;;4953469;29;20486;-75
2021/09/05 14:01:46;;;;;;;17.83;11.63;;;;;;;;;;4953209;29;20035;-76
2021/09/05 14:04:11;;;;;;;17.20;11.52;;;;;;;;;;4953752;29;20022;-76
2021/09/05 14:06:37;;;;;;;19.92;11.70;;;;;;;;;;4953030;29;20042;-75
2021/09/05 14:09:02;;;;;;;20.92;13.63;;;;;;;;;;4954573;29;20055;-74
2021/09/05 14:11:28;;;;;;;17.85;11.88;;;;;;;;;;4953241;29;20039;-75
2021/09/05 14:13:53;;;;;;;22.25;12.63;;;;;;;;;;4954286;29;20031;-76
2021/09/05 14:16:19;;;;;;;22.63;12.93;;;;;;;;;;4954870;29;20027;-75
2021/09/05 14:18:44;;;;;;;22.50;12.27;;;;;;;;;;4954281;29;20067;-76